Time;durP1;ratioP1;P1;durP2;ratioP2;P2;SDS_P1;SDS_P2;PMS_P1;PMS_P2;Temp;Humidity;BMP_temperature;BMP_pressure;BME280_temperature;BME280_humidity;BME280_pressure;Samples;Min_cycle;Max_cycle;Signal;HPM_P1;HPM_P2
2023/08/25 00:00:30;;;;;;;0.00;0.00;;;23.80;99.90;;;;;;7378692;19;20248;-68
2023/08/25 00:02:59;;;;;;;0.00;0.00;;;23.80;99.90;;;;;;7378059;19;20149;-68
2023/08/25 00:05:27;;;;;;;0.00;0.00;;;23.70;99.90;;;;;;7376557;19;20133;-68
2023/08/25 00:07:56;;;;;;;0.00;0.00;;;23.60;99.90;;;;;;7379490;19;20129;-68
2023/08/25 00:10:28;;;;;;;0.00;0.00;;;23.50;99.90;;;;;;7377056;19;20132;-67
2023/08/25 00:12:56;;;;;;;0.00;0.00;;;23.50;99.90;;;;;;7374480;19;20176;-68
2023/08/25 00:15:25;;;;;;;0.00;0.00;;;23.50;99.90;;;;;;7378370;19;20229;-68
2023/08/25 00:17:55;;;;;;;0.00;0.00;;;23.50;99.90;;;;;;7378429;19;20141;-68
2023/08/25 00:20:25;;;;;;;0.00;0.00;;;23.50;99.90;;;;;;7376379;19;20175;-68
2023/08/25 00:22:55;;;;;;;0.00;0.00;;;23.50;99.90;;;;;;7375205;19;20149;-68
2023/08/25 00:25:26;;;;;;;0.00;0.00;;;23.50;99.90;;;;;;7370576;19;20152;-68
2023/08/25 00:27:55;;;;;;;0.00;0.00;;;23.50;99.90;;;;;;7380025;19;20159;-68
2023/08/25 00:30:24;;;;;;;0.00;0.00;;;23.50;99.90;;;;;;7379366;19;20149;-68
2023/08/25 00:32:56;;;;;;;0.00;0.00;;;23.40;99.90;;;;;;7375864;19;20191;-68
2023/08/25 00:35:25;;;;;;;0.00;0.00;;;23.40;99.90;;;;;;7380813;19;20155;-69
2023/08/25 00:37:54;;;;;;;0.00;0.00;;;23.40;99.90;;;;;;7380394;19;20193;-69
2023/08/25 00:40:23;;;;;;;0.00;0.00;;;23.40;99.90;;;;;;7379562;19;20643;-69
2023/08/25 00:42:54;;;;;;;0.00;0.00;;;23.40;99.90;;;;;;7376443;19;20152;-69
2023/08/25 00:45:24;;;;;;;0.00;0.00;;;23.40;99.90;;;;;;7376712;19;20144;-69
2023/08/25 00:47:52;;;;;;;0.00;0.00;;;23.30;99.90;;;;;;7379218;19;20171;-69
2023/08/25 00:50:22;;;;;;;0.00;0.00;;;23.30;99.90;;;;;;7378747;19;20132;-69
2023/08/25 00:52:50;;;;;;;0.00;0.00;;;23.30;99.90;;;;;;7375226;19;20220;-69
2023/08/25 00:55:19;;;;;;;0.00;0.00;;;23.20;99.90;;;;;;7379942;19;20168;-69
2023/08/25 00:57:48;;;;;;;0.00;0.00;;;23.20;99.90;;;;;;7379200;19;20145;-69
2023/08/25 01:00:19;;;;;;;0.00;0.00;;;23.20;99.90;;;;;;7376170;19;20171;-69
2023/08/25 01:02:49;;;;;;;0.00;0.00;;;23.30;99.90;;;;;;7376963;19;20152;-69
2023/08/25 01:05:18;;;;;;;0.00;0.00;;;23.20;99.90;;;;;;7377980;19;20159;-68
2023/08/25 01:07:47;;;;;;;0.00;0.00;;;23.10;99.90;;;;;;7376969;19;20152;-68
2023/08/25 01:10:16;;;;;;;0.00;0.00;;;23.00;99.90;;;;;;7376312;19;20174;-68
2023/08/25 01:12:54;;;;;;;0.00;0.00;;;23.00;99.90;;;;;;7373448;19;20195;-68
2023/08/25 01:15:32;;;;;;;0.00;0.00;;;23.00;99.90;;;;;;7376914;19;20646;-68
2023/08/25 01:18:06;;;;;;;0.00;0.00;;;22.90;99.90;;;;;;7377273;19;20673;-68
2023/08/25 01:20:35;;;;;;;0.00;0.00;;;22.90;99.90;;;;;;7376237;19;20165;-68
2023/08/25 01:23:18;;;;;;;0.00;0.00;;;22.90;99.90;;;;;;7375617;19;20149;-67
2023/08/25 01:25:50;;;;;;;0.00;0.00;;;22.80;99.90;;;;;;7375101;19;20193;-68
2023/08/25 01:28:22;;;;;;;0.00;0.00;;;22.70;99.90;;;;;;7376575;19;20153;-68
2023/08/25 01:30:54;;;;;;;0.00;0.00;;;22.80;99.90;;;;;;7375493;19;20164;-68
2023/08/25 01:33:24;;;;;;;0.00;0.00;;;22.70;99.90;;;;;;7376468;19;20155;-68
2023/08/25 01:36:03;;;;;;;0.00;0.00;;;22.70;99.90;;;;;;7376310;19;20143;-68
2023/08/25 01:38:39;;;;;;;0.00;0.00;;;22.70;99.90;;;;;;7376480;19;20189;-68
2023/08/25 01:41:17;;;;;;;0.00;0.00;;;22.60;99.90;;;;;;7376267;19;20172;-67
2023/08/25 01:43:49;;;;;;;0.00;0.00;;;22.60;99.90;;;;;;7375953;19;20160;-68
2023/08/25 01:46:20;;;;;;;0.00;0.00;;;22.50;99.90;;;;;;7375548;19;20523;-68
2023/08/25 01:48:52;;;;;;;0.00;0.00;;;22.50;99.90;;;;;;7379366;19;20132;-68
2023/08/25 01:51:22;;;;;;;0.00;0.00;;;22.40;99.90;;;;;;7375233;19;20251;-67
2023/08/25 01:53:56;;;;;;;0.00;0.00;;;22.50;99.90;;;;;;7375488;19;20156;-67
2023/08/25 01:56:27;;;;;;;0.00;0.00;;;22.40;99.90;;;;;;7375659;19;20153;-67
2023/08/25 01:58:56;;;;;;;0.00;0.00;;;22.40;99.90;;;;;;7376207;19;20156;-68
2023/08/25 02:01:25;;;;;;;0.00;0.00;;;22.40;99.90;;;;;;7374710;19;20196;-67
2023/08/25 02:03:55;;;;;;;0.00;0.00;;;22.40;99.90;;;;;;7376909;19;20130;-67
2023/08/25 02:06:23;;;;;;;0.00;0.00;;;22.40;99.90;;;;;;7375922;19;20137;-67
2023/08/25 02:08:52;;;;;;;0.00;0.00;;;22.40;99.90;;;;;;7375852;19;20175;-67
2023/08/25 02:11:22;;;;;;;0.00;0.00;;;22.40;99.90;;;;;;7377402;19;20205;-67
2023/08/25 02:13:53;;;;;;;0.00;0.00;;;22.40;99.90;;;;;;7383321;19;20160;-68
2023/08/25 02:16:22;;;;;;;0.00;0.00;;;22.30;99.90;;;;;;7382370;19;20161;-67
2023/08/25 02:18:51;;;;;;;0.00;0.00;;;22.30;99.90;;;;;;7385876;19;20157;-67
2023/08/25 02:21:20;;;;;;;0.00;0.00;;;22.30;99.90;;;;;;7380360;19;20207;-67
2023/08/25 02:23:49;;;;;;;0.00;0.00;;;22.30;99.90;;;;;;7382236;19;20508;-67
2023/08/25 02:26:20;;;;;;;0.00;0.00;;;22.30;99.90;;;;;;7379754;19;20157;-67
2023/08/25 02:28:49;;;;;;;0.00;0.00;;;22.30;99.90;;;;;;7382930;19;20148;-68
2023/08/25 02:31:20;;;;;;;0.00;0.00;;;22.30;99.90;;;;;;7381846;19;20184;-68
2023/08/25 02:33:49;;;;;;;0.00;0.00;;;22.20;99.90;;;;;;7380448;19;20263;-68
2023/08/25 02:36:19;;;;;;;0.00;0.00;;;22.20;99.90;;;;;;7382108;19;20153;-67
2023/08/25 02:38:48;;;;;;;0.00;0.00;;;22.20;99.90;;;;;;7382693;19;20148;-68
2023/08/25 02:41:17;;;;;;;0.00;0.00;;;22.20;99.90;;;;;;7382103;19;20187;-68
2023/08/25 02:43:45;;;;;;;0.00;0.00;;;22.20;99.90;;;;;;7382170;19;20157;-68
2023/08/25 02:46:15;;;;;;;0.00;0.00;;;22.20;99.90;;;;;;7382360;19;20161;-67
2023/08/25 02:48:46;;;;;;;0.00;0.00;;;22.20;99.90;;;;;;7381356;19;20156;-68
2023/08/25 02:51:15;;;;;;;0.00;0.00;;;22.20;99.90;;;;;;7381726;19;20191;-67
2023/08/25 02:53:43;;;;;;;0.00;0.00;;;22.20;99.90;;;;;;7379663;19;20161;-68
2023/08/25 02:56:12;;;;;;;0.00;0.00;;;22.20;99.90;;;;;;7382982;19;20159;-68
2023/08/25 02:58:41;;;;;;;0.00;0.00;;;22.20;99.90;;;;;;7380844;19;20153;-68
2023/08/25 03:01:13;;;;;;;0.00;0.00;;;22.20;99.90;;;;;;7381305;19;20251;-67
2023/08/25 03:03:43;;;;;;;0.00;0.00;;;22.10;99.90;;;;;;7379449;19;20149;-68
2023/08/25 03:06:15;;;;;;;0.00;0.00;;;;;;;;;;7380849;19;20165;-68
2023/08/25 03:08:45;;;;;;;0.00;0.00;;;22.10;99.90;;;;;;7379625;19;20521;-68
2023/08/25 03:11:14;;;;;;;0.00;0.00;;;22.10;99.90;;;;;;7380170;19;20184;-67
2023/08/25 03:13:46;;;;;;;0.00;0.00;;;22.10;99.90;;;;;;7378204;19;20152;-68
2023/08/25 03:16:15;;;;;;;0.00;0.00;;;22.10;99.90;;;;;;7381921;19;20153;-67
2023/08/25 03:18:44;;;;;;;0.00;0.00;;;22.00;99.90;;;;;;7380099;19;20153;-68
2023/08/25 03:21:16;;;;;;;0.00;0.00;;;21.90;99.90;;;;;;7379663;19;20181;-67
2023/08/25 03:23:45;;;;;;;0.00;0.00;;;21.90;99.90;;;;;;7379305;19;20152;-68
2023/08/25 03:26:13;;;;;;;0.00;0.00;;;21.80;99.90;;;;;;7380417;19;20171;-68
2023/08/25 03:28:42;;;;;;;0.00;0.00;;;21.80;99.90;;;;;;7381395;19;20152;-68
2023/08/25 03:31:12;;;;;;;0.00;0.00;;;21.70;99.90;;;;;;7380191;19;20180;-67
2023/08/25 03:33:41;;;;;;;0.00;0.00;;;21.80;99.90;;;;;;7378626;19;20167;-67
2023/08/25 03:36:09;;;;;;;0.00;0.00;;;21.60;99.90;;;;;;7381746;19;20149;-67
2023/08/25 03:38:41;;;;;;;0.00;0.00;;;21.70;99.90;;;;;;7379324;19;20683;-68
2023/08/25 03:41:13;;;;;;;0.00;0.00;;;21.60;99.90;;;;;;7381334;19;20175;-68
2023/08/25 03:43:42;;;;;;;0.00;0.00;;;21.60;99.90;;;;;;7379418;19;20156;-68
2023/08/25 03:46:11;;;;;;;0.00;0.00;;;21.60;99.90;;;;;;7380949;19;20203;-68
2023/08/25 03:48:40;;;;;;;0.00;0.00;;;21.60;99.90;;;;;;7379382;19;20643;-68
2023/08/25 03:51:08;;;;;;;0.00;0.00;;;21.60;99.90;;;;;;7380121;19;20183;-68
2023/08/25 03:53:40;;;;;;;0.00;0.00;;;21.60;99.90;;;;;;7378652;19;20159;-68
2023/08/25 03:56:09;;;;;;;0.00;0.00;;;21.50;99.90;;;;;;7381577;19;20156;-68
2023/08/25 03:58:38;;;;;;;0.00;0.00;;;21.40;99.90;;;;;;7379374;19;20157;-68
2023/08/25 04:01:07;;;;;;;0.00;0.00;;;21.40;99.90;;;;;;7380128;19;20184;-68
2023/08/25 04:03:36;;;;;;;0.00;0.00;;;21.40;99.90;;;;;;7378773;19;20153;-68
2023/08/25 04:06:04;;;;;;;0.00;0.00;;;21.20;99.90;;;;;;7381381;19;20133;-68
2023/08/25 04:08:33;;;;;;;0.00;0.00;;;21.20;99.90;;;;;;7379828;19;20188;-68
2023/08/25 04:11:05;;;;;;;0.00;0.00;;;21.20;99.90;;;;;;7380265;19;20153;-68
2023/08/25 04:13:33;;;;;;;0.00;0.00;;;21.10;99.90;;;;;;7378881;19;20156;-68
2023/08/25 04:16:04;;;;;;;0.00;0.00;;;21.10;99.90;;;;;;7379020;19;20164;-68
2023/08/25 04:18:33;;;;;;;0.00;0.00;;;21.00;99.90;;;;;;7380156;19;20249;-68
2023/08/25 04:21:02;;;;;;;0.00;0.00;;;20.90;99.90;;;;;;7379903;19;20159;-68
2023/08/25 04:23:31;;;;;;;0.00;0.00;;;20.90;99.90;;;;;;7378465;19;20148;-68
2023/08/25 04:26:00;;;;;;;0.00;0.00;;;20.90;99.90;;;;;;7378601;19;20144;-68
2023/08/25 04:28:31;;;;;;;0.00;0.00;;;20.80;99.90;;;;;;7380486;19;20172;-68
2023/08/25 04:31:00;;;;;;;0.00;0.00;;;20.90;99.90;;;;;;7377718;19;20152;-68
2023/08/25 04:33:36;;;;;;;0.00;0.00;;;20.90;99.90;;;;;;7377590;19;20236;-68
2023/08/25 04:36:05;;;;;;;0.00;0.00;;;20.90;99.90;;;;;;7378695;19;20653;-68
2023/08/25 04:38:34;;;;;;;0.00;0.00;;;20.90;99.90;;;;;;7378216;19;20156;-67
2023/08/25 04:41:03;;;;;;;0.00;0.00;;;20.90;99.90;;;;;;7378183;19;20179;-68
2023/08/25 04:43:35;;;;;;;0.00;0.00;;;20.90;99.90;;;;;;7377180;19;20157;-68
2023/08/25 04:46:03;;;;;;;0.00;0.00;;;20.90;99.90;;;;;;7379659;19;20153;-68
2023/08/25 04:48:32;;;;;;;0.00;0.00;;;21.00;99.90;;;;;;7378908;19;20193;-68
2023/08/25 04:51:01;;;;;;;0.00;0.00;;;21.10;99.90;;;;;;7378988;19;20193;-68
2023/08/25 04:53:29;;;;;;;0.00;0.00;;;21.10;99.90;;;;;;7378353;19;20152;-68
2023/08/25 04:55:58;;;;;;;0.00;0.00;;;21.10;99.90;;;;;;7378983;19;20224;-68
2023/08/25 04:58:27;;;;;;;0.00;0.00;;;21.20;99.90;;;;;;7378224;19;20148;-68
2023/08/25 05:00:58;;;;;;;0.00;0.00;;;21.30;99.90;;;;;;7378294;19;20133;-68
2023/08/25 05:03:27;;;;;;;0.00;0.00;;;21.40;99.90;;;;;;7377109;19;20152;-68
2023/08/25 05:05:56;;;;;;;0.00;0.00;;;21.40;99.90;;;;;;7376796;19;20495;-68
2023/08/25 05:08:27;;;;;;;0.00;0.00;;;21.50;99.90;;;;;;7378518;19;20160;-68
2023/08/25 05:10:56;;;;;;;0.00;0.00;;;21.60;99.90;;;;;;7374817;19;20152;-68
2023/08/25 05:13:25;;;;;;;0.00;0.00;;;21.70;99.90;;;;;;7376917;19;20194;-68
2023/08/25 05:15:54;;;;;;;0.00;0.00;;;21.70;99.90;;;;;;7376005;19;20219;-68
2023/08/25 05:18:39;;;;;;;0.00;0.00;;;21.90;99.90;;;;;;7377218;19;20149;-68
2023/08/25 05:21:08;;;;;;;0.00;0.00;;;22.00;99.90;;;;;;7375588;19;20180;-68
2023/08/25 05:23:37;;;;;;;0.00;0.00;;;22.20;99.90;;;;;;7375420;19;20156;-68
2023/08/25 05:26:06;;;;;;;0.00;0.00;;;22.30;99.90;;;;;;7376942;19;20150;-68
2023/08/25 05:28:35;;;;;;;0.00;0.00;;;22.40;99.90;;;;;;7376757;19;20162;-68
2023/08/25 05:31:05;;;;;;;0.00;0.00;;;22.50;99.90;;;;;;7375714;19;20184;-68
2023/08/25 05:34:04;;;;;;;0.00;0.00;;;22.60;99.90;;;;;;7375817;19;20185;-68
2023/08/25 05:36:41;;;;;;;0.00;0.00;;;22.70;99.90;;;;;;7374805;19;20172;-67
2023/08/25 05:39:10;;;;;;;0.00;0.00;;;22.80;99.90;;;;;;7377857;19;20175;-68
2023/08/25 05:41:38;;;;;;;0.00;0.00;;;22.90;99.90;;;;;;7373771;19;20202;-67
2023/08/25 05:44:08;;;;;;;0.00;0.00;;;23.00;99.90;;;;;;7378829;19;20141;-68
2023/08/25 05:46:36;;;;;;;0.00;0.00;;;23.10;99.90;;;;;;7382868;19;20137;-68
2023/08/25 05:49:08;;;;;;;0.00;0.00;;;23.20;99.90;;;;;;7384559;19;20220;-68
2023/08/25 05:51:36;;;;;;;0.00;0.00;;;23.30;99.90;;;;;;7382320;19;20200;-68
2023/08/25 05:54:05;;;;;;;0.00;0.00;;;23.40;99.90;;;;;;7381293;19;20135;-68
2023/08/25 05:56:34;;;;;;;0.00;0.00;;;23.60;99.90;;;;;;7384399;19;20161;-67
2023/08/25 05:59:02;;;;;;;0.00;0.00;;;23.70;99.90;;;;;;7385244;19;20155;-68
2023/08/25 06:01:31;;;;;;;0.00;0.00;;;23.80;99.90;;;;;;7384699;19;20153;-67
2023/08/25 06:04:00;;;;;;;0.00;0.00;;;23.90;99.90;;;;;;7383830;19;20189;-66
2023/08/25 06:06:31;;;;;;;0.00;0.00;;;24.00;99.90;;;;;;7382870;19;20157;-66
2023/08/25 06:09:00;;;;;;;0.00;0.00;;;24.10;99.90;;;;;;7381766;19;20160;-70
2023/08/25 06:11:28;;;;;;;0.00;0.00;;;24.30;99.90;;;;;;7381807;19;20180;-69
2023/08/25 06:13:57;;;;;;;0.00;0.00;;;24.40;99.90;;;;;;7382260;19;20156;-68
2023/08/25 06:16:26;;;;;;;0.00;0.00;;;24.50;99.90;;;;;;7382141;19;20156;-69
2023/08/25 06:18:55;;;;;;;0.00;0.00;;;24.70;99.90;;;;;;7383382;19;20140;-68
2023/08/25 06:21:24;;;;;;;0.00;0.00;;;24.90;99.90;;;;;;7381505;19;20180;-68
2023/08/25 06:23:55;;;;;;;0.00;0.00;;;25.00;99.90;;;;;;7383576;19;20141;-68
2023/08/25 06:26:24;;;;;;;0.00;0.00;;;25.10;99.90;;;;;;7383528;19;20137;-67
2023/08/25 06:28:53;;;;;;;0.00;0.00;;;25.20;99.90;;;;;;7380465;19;20161;-68
2023/08/25 06:31:22;;;;;;;0.00;0.00;;;25.40;99.90;;;;;;7381205;19;20180;-67
2023/08/25 06:33:51;;;;;;;0.00;0.00;;;25.50;99.90;;;;;;7381719;19;20144;-68
2023/08/25 06:36:19;;;;;;;0.00;0.00;;;25.70;99.90;;;;;;7384182;19;20141;-69
2023/08/25 06:38:48;;;;;;;0.00;0.00;;;25.80;99.90;;;;;;7383828;19;20133;-69
2023/08/25 06:41:20;;;;;;;0.00;0.00;;;26.00;99.90;;;;;;7382600;19;20247;-69
2023/08/25 06:43:48;;;;;;;0.00;0.00;;;26.10;99.90;;;;;;7382986;19;20519;-69
2023/08/25 06:46:17;;;;;;;0.00;0.00;;;26.20;99.90;;;;;;7384239;19;20141;-69
2023/08/25 06:48:46;;;;;;;0.00;0.00;;;26.30;99.90;;;;;;7383617;19;20140;-70
2023/08/25 06:51:15;;;;;;;0.00;0.00;;;26.50;99.90;;;;;;7383523;19;20188;-69
2023/08/25 06:53:43;;;;;;;0.00;0.00;;;26.60;99.90;;;;;;7383433;19;20137;-69
2023/08/25 06:56:12;;;;;;;0.00;0.00;;;26.70;99.90;;;;;;7381704;19;20161;-70
2023/08/25 06:58:44;;;;;;;0.00;0.00;;;26.90;99.90;;;;;;7381416;19;20156;-70
2023/08/25 07:01:13;;;;;;;0.00;0.00;;;27.00;99.90;;;;;;7382533;19;20148;-70
2023/08/25 07:03:42;;;;;;;0.00;0.00;;;27.10;99.90;;;;;;7383352;19;20164;-70
2023/08/25 07:06:11;;;;;;;0.00;0.00;;;27.20;99.90;;;;;;7382230;19;20149;-70
2023/08/25 07:08:40;;;;;;;0.00;0.00;;;27.30;99.90;;;;;;7379465;19;20164;-71
2023/08/25 07:11:08;;;;;;;0.00;0.00;;;27.40;99.90;;;;;;7380759;19;20204;-71
2023/08/25 07:13:37;;;;;;;0.00;0.00;;;27.40;99.90;;;;;;7383103;19;20141;-70
2023/08/25 07:16:08;;;;;;;0.00;0.00;;;27.50;99.90;;;;;;7380304;19;20145;-70
2023/08/25 07:18:37;;;;;;;0.00;0.00;;;27.60;99.90;;;;;;7382843;19;20144;-69
2023/08/25 07:21:06;;;;;;;0.00;0.00;;;27.70;99.90;;;;;;7380256;19;20179;-69
2023/08/25 07:23:35;;;;;;;0.00;0.00;;;27.80;99.90;;;;;;7380931;19;20160;-69
2023/08/25 07:26:04;;;;;;;0.00;0.00;;;27.90;99.90;;;;;;7380975;19;20136;-69
2023/08/25 07:28:32;;;;;;;0.00;0.00;;;28.00;99.90;;;;;;7379673;19;20141;-70
2023/08/25 07:31:04;;;;;;;0.00;0.00;;;28.20;99.90;;;;;;7376021;19;20188;-70
2023/08/25 07:33:35;;;;;;;0.00;0.00;;;28.30;99.90;;;;;;7378894;19;20136;-69
2023/08/25 07:36:05;;;;;;;0.00;0.00;;;28.40;99.90;;;;;;7379624;19;20137;-70
2023/08/25 07:38:34;;;;;;;0.00;0.00;;;28.50;99.90;;;;;;7381818;19;20147;-69
2023/08/25 07:41:03;;;;;;;0.00;0.00;;;28.50;99.90;;;;;;7378277;19;20534;-70
2023/08/25 07:43:32;;;;;;;0.00;0.00;;;;;;;;;;7381126;19;20129;-70
2023/08/25 07:46:00;;;;;;;0.00;0.00;;;28.40;99.90;;;;;;7380075;19;20129;-71
2023/08/25 07:48:29;;;;;;;0.00;0.00;;;28.60;99.90;;;;;;7381076;19;20121;-70
2023/08/25 07:51:00;;;;;;;0.00;0.00;;;28.60;99.90;;;;;;7380184;19;20200;-70
2023/08/25 07:53:29;;;;;;;0.00;0.00;;;28.70;99.90;;;;;;7380246;19;20156;-70
2023/08/25 07:55:58;;;;;;;0.00;0.00;;;28.70;99.90;;;;;;7379315;19;20153;-70
2023/08/25 07:58:27;;;;;;;0.00;0.00;;;28.70;99.90;;;;;;7380063;19;20164;-70
2023/08/25 08:00:56;;;;;;;0.00;0.00;;;28.70;99.90;;;;;;7378937;19;20185;-69
2023/08/25 08:03:24;;;;;;;0.00;0.00;;;28.60;99.90;;;;;;7381720;19;20137;-71
2023/08/25 08:05:53;;;;;;;0.00;0.00;;;28.70;99.90;;;;;;7381695;19;20148;-71
2023/08/25 08:08:24;;;;;;;0.00;0.00;;;28.70;99.90;;;;;;7379044;19;20136;-71
2023/08/25 08:10:53;;;;;;;0.00;0.00;;;28.70;99.90;;;;;;7379134;19;20156;-71
2023/08/25 08:13:22;;;;;;;0.00;0.00;;;28.70;99.90;;;;;;7379137;19;20153;-70
2023/08/25 08:15:50;;;;;;;0.00;0.00;;;28.80;99.90;;;;;;7381632;19;20176;-70
2023/08/25 08:18:19;;;;;;;0.00;0.00;;;28.80;99.90;;;;;;7380126;19;20145;-70
2023/08/25 08:20:48;;;;;;;0.00;0.00;;;28.90;99.90;;;;;;7378844;19;20152;-69
2023/08/25 08:23:16;;;;;;;0.00;0.00;;;29.00;99.90;;;;;;7375549;19;20194;-70
2023/08/25 08:25:48;;;;;;;0.00;0.00;;;29.10;99.90;;;;;;7376486;19;20163;-70
2023/08/25 08:28:16;;;;;;;0.00;0.00;;;29.30;99.90;;;;;;7376483;19;20153;-70
2023/08/25 08:30:45;;;;;;;0.00;0.00;;;29.30;99.90;;;;;;7377891;19;20152;-71
2023/08/25 08:33:14;;;;;;;0.00;0.00;;;29.40;99.90;;;;;;7377023;19;20180;-70
2023/08/25 08:35:43;;;;;;;0.00;0.00;;;29.50;99.90;;;;;;7380507;19;20162;-69
2023/08/25 08:38:11;;;;;;;0.00;0.00;;;29.50;99.90;;;;;;7379517;19;20200;-69
2023/08/25 08:40:40;;;;;;;0.00;0.00;;;29.60;99.90;;;;;;7380027;19;20201;-68
2023/08/25 08:43:15;;;;;;;0.00;0.00;;;29.80;99.90;;;;;;7378485;19;20231;-69
2023/08/25 08:45:45;;;;;;;0.00;0.00;;;29.80;99.90;;;;;;7378181;19;20156;-70
2023/08/25 08:48:16;;;;;;;0.00;0.00;;;29.70;99.90;;;;;;7374558;19;20156;-69
2023/08/25 08:50:45;;;;;;;0.00;0.00;;;29.60;99.90;;;;;;7378752;19;20237;-70
2023/08/25 08:53:15;;;;;;;0.00;0.00;;;29.60;99.90;;;;;;7375402;19;20140;-69
2023/08/25 08:55:46;;;;;;;0.00;0.00;;;29.40;99.90;;;;;;7379865;19;20707;-70
2023/08/25 08:58:18;;;;;;;0.00;0.00;;;29.40;99.90;;;;;;7375981;19;20153;-70
2023/08/25 09:00:47;;;;;;;0.00;0.00;;;29.40;99.90;;;;;;7377538;19;20251;-71
2023/08/25 09:03:21;;;;;;;0.00;0.00;;;29.30;99.90;;;;;;7377898;19;20144;-69
2023/08/25 09:05:50;;;;;;;0.00;0.00;;;29.30;99.90;;;;;;7377266;19;20263;-70
2023/08/25 09:08:19;;;;;;;0.00;0.00;;;29.10;99.90;;;;;;7375398;19;20152;-70
2023/08/25 09:10:48;;;;;;;0.00;0.00;;;29.10;99.90;;;;;;7377085;19;20184;-70
2023/08/25 09:13:19;;;;;;;0.00;0.00;;;29.00;99.90;;;;;;7374734;19;20152;-70
2023/08/25 09:15:49;;;;;;;0.00;0.00;;;29.00;99.90;;;;;;7376603;19;20220;-70
2023/08/25 09:18:18;;;;;;;0.00;0.00;;;29.20;99.90;;;;;;7377569;19;20132;-70
2023/08/25 09:20:47;;;;;;;0.00;0.00;;;29.20;99.90;;;;;;7382903;19;20641;-70
2023/08/25 09:23:15;;;;;;;0.00;0.00;;;29.20;99.90;;;;;;7381772;19;20145;-70
2023/08/25 09:25:45;;;;;;;0.00;0.00;;;29.20;99.90;;;;;;7383860;19;20189;-70
2023/08/25 09:28:13;;;;;;;0.00;0.00;;;29.20;99.90;;;;;;7381759;19;20160;-70
2023/08/25 09:30:46;;;;;;;0.00;0.00;;;29.20;99.90;;;;;;7385195;19;20524;-69
2023/08/25 09:33:16;;;;;;;0.00;0.00;;;29.10;99.90;;;;;;7383766;19;20153;-69
2023/08/25 09:35:45;;;;;;;0.00;0.00;;;29.10;99.90;;;;;;7385074;19;20136;-70
2023/08/25 09:38:23;;;;;;;0.00;0.00;;;29.10;99.90;;;;;;7384910;19;20125;-69
2023/08/25 09:40:52;;;;;;;0.00;0.00;;;29.00;99.90;;;;;;7383028;19;20191;-70
2023/08/25 09:43:33;;;;;;;0.00;0.00;;;28.90;99.90;;;;;;7381361;19;20153;-70
2023/08/25 09:46:08;;;;;;;0.00;0.00;;;28.80;99.90;;;;;;7385315;19;20598;-70
2023/08/25 09:48:38;;;;;;;0.00;0.00;;;28.70;99.90;;;;;;7381527;19;20152;-70
2023/08/25 09:51:08;;;;;;;0.00;0.00;;;28.70;99.90;;;;;;7381219;19;20189;-70
2023/08/25 09:53:39;;;;;;;0.00;0.00;;;28.70;99.90;;;;;;7383260;19;20168;-69
2023/08/25 09:56:09;;;;;;;0.00;0.00;;;28.60;99.90;;;;;;7384760;19;20156;-70
2023/08/25 09:58:39;;;;;;;0.00;0.00;;;28.70;99.90;;;;;;7385863;19;20141;-70
2023/08/25 10:01:11;;;;;;;0.00;0.00;;;28.70;99.90;;;;;;7381753;19;20191;-70
2023/08/25 10:03:41;;;;;;;0.00;0.00;;;28.70;99.90;;;;;;7382547;19;20144;-70
2023/08/25 10:06:10;;;;;;;0.00;0.00;;;28.80;99.90;;;;;;7382919;19;20762;-69
2023/08/25 10:08:41;;;;;;;0.00;0.00;;;28.80;99.90;;;;;;7382199;19;20156;-70
2023/08/25 10:11:11;;;;;;;0.00;0.00;;;28.90;99.90;;;;;;7380357;19;20196;-70
2023/08/25 10:13:41;;;;;;;0.00;0.00;;;29.00;99.90;;;;;;7384490;19;20204;-69
2023/08/25 10:16:14;;;;;;;0.00;0.00;;;29.10;99.90;;;;;;7383351;19;20175;-68
2023/08/25 10:18:47;;;;;;;0.00;0.00;;;29.30;99.90;;;;;;7386275;19;20163;-68
2023/08/25 10:21:20;;;;;;;0.00;0.00;;;29.40;99.90;;;;;;7381738;19;20157;-68
2023/08/25 10:23:53;;;;;;;0.00;0.00;;;29.50;99.90;;;;;;7382776;19;20137;-69
2023/08/25 10:26:23;;;;;;;0.00;0.00;;;29.60;99.90;;;;;;7383254;19;20143;-69
2023/08/25 10:28:52;;;;;;;0.00;0.00;;;29.70;99.90;;;;;;7380796;19;20162;-69
2023/08/25 10:31:25;;;;;;;0.00;0.00;;;29.80;99.90;;;;;;7380703;19;20269;-68
2023/08/25 10:33:55;;;;;;;0.00;0.00;;;29.80;99.90;;;;;;7383995;19;20141;-68
2023/08/25 10:36:25;;;;;;;0.00;0.00;;;29.80;99.90;;;;;;7382212;19;20156;-69
2023/08/25 10:39:11;;;;;;;0.00;0.00;;;29.80;99.90;;;;;;7384177;19;20604;-68
2023/08/25 10:41:44;;;;;;;0.00;0.00;;;29.80;99.90;;;;;;7380571;19;20198;-68
2023/08/25 10:44:22;;;;;;;0.00;0.00;;;30.00;99.90;;;;;;7382269;19;20136;-69
2023/08/25 10:46:54;;;;;;;0.00;0.00;;;30.10;99.90;;;;;;7381610;19;20228;-69
2023/08/25 10:49:24;;;;;;;0.00;0.00;;;30.00;99.90;;;;;;7379575;19;20168;-70
2023/08/25 10:51:53;;;;;;;0.00;0.00;;;30.00;99.90;;;;;;7379705;19;20180;-69
2023/08/25 10:54:22;;;;;;;0.00;0.00;;;30.00;99.90;;;;;;7384095;19;20189;-69
2023/08/25 10:56:51;;;;;;;0.00;0.00;;;30.10;99.90;;;;;;7392345;19;20133;-71
2023/08/25 10:59:20;;;;;;;0.00;0.00;;;30.10;99.90;;;;;;7387383;19;20156;-69
2023/08/25 11:02:01;;;;;;;0.00;0.00;;;29.90;99.90;;;;;;7379729;19;20219;-68
2023/08/25 11:04:30;;;;;;;0.00;0.00;;;29.90;99.90;;;;;;7379744;19;20156;-68
2023/08/25 11:07:00;;;;;;;0.00;0.00;;;30.00;99.90;;;;;;7381362;19;20152;-68
2023/08/25 11:09:36;;;;;;;0.00;0.00;;;29.90;99.90;;;;;;7378062;19;20165;-69
2023/08/25 11:12:07;;;;;;;0.00;0.00;;;29.90;99.90;;;;;;7380661;19;20233;-68
2023/08/25 11:14:37;;;;;;;0.00;0.00;;;29.80;99.90;;;;;;7381691;19;20160;-69
2023/08/25 11:17:10;;;;;;;0.00;0.00;;;29.70;99.90;;;;;;7383072;19;20164;-69
2023/08/25 11:19:42;;;;;;;0.00;0.00;;;29.60;99.90;;;;;;7382594;19;20151;-69
2023/08/25 11:22:12;;;;;;;0.00;0.00;;;29.60;99.90;;;;;;7378409;19;20148;-69
2023/08/25 11:24:41;;;;;;;0.00;0.00;;;29.50;99.90;;;;;;7382240;19;20137;-69
2023/08/25 11:27:11;;;;;;;0.00;0.00;;;29.50;99.90;;;;;;7379310;19;20207;-68
2023/08/25 11:29:44;;;;;;;0.00;0.00;;;29.40;99.90;;;;;;7379037;19;20193;-69
2023/08/25 11:32:17;;;;;;;0.00;0.00;;;29.40;99.90;;;;;;7378497;19;20237;-69
2023/08/25 11:34:50;;;;;;;0.00;0.00;;;29.40;99.90;;;;;;7382709;19;20618;-69
2023/08/25 11:37:20;;;;;;;0.00;0.00;;;29.40;99.90;;;;;;7379540;19;20196;-69
2023/08/25 11:39:49;;;;;;;0.00;0.00;;;29.40;99.90;;;;;;7381610;19;20129;-68
2023/08/25 11:42:23;;;;;;;0.00;0.00;;;29.30;99.90;;;;;;7374641;19;20255;-68
2023/08/25 11:44:53;;;;;;;0.00;0.00;;;29.20;99.90;;;;;;7376785;19;20196;-69
2023/08/25 11:47:25;;;;;;;0.00;0.00;;;29.20;99.90;;;;;;7377902;19;20145;-69
2023/08/25 11:49:54;;;;;;;0.00;0.00;;;29.20;99.90;;;;;;7379765;19;20139;-68
2023/08/25 11:52:23;;;;;;;0.00;0.00;;;29.30;99.90;;;;;;7376181;19;20239;-68
2023/08/25 11:54:52;;;;;;;0.00;0.00;;;29.40;99.90;;;;;;7380686;19;20140;-68
2023/08/25 11:57:21;;;;;;;0.00;0.00;;;29.50;99.90;;;;;;7378518;19;20167;-67
2023/08/25 11:59:52;;;;;;;0.00;0.00;;;29.50;99.90;;;;;;7380143;19;20161;-67
2023/08/25 12:02:24;;;;;;;0.00;0.00;;;29.60;99.90;;;;;;7376729;19;20184;-68
2023/08/25 12:04:57;;;;;;;0.00;0.00;;;29.60;99.90;;;;;;7379778;19;20200;-68
2023/08/25 12:07:26;;;;;;;0.00;0.00;;;29.60;99.90;;;;;;7380947;19;20140;-67
2023/08/25 12:09:56;;;;;;;0.00;0.00;;;29.50;99.90;;;;;;7379861;19;20141;-68
2023/08/25 12:12:25;;;;;;;0.00;0.00;;;29.50;99.90;;;;;;7377141;19;20152;-68
2023/08/25 12:14:56;;;;;;;0.00;0.00;;;29.50;99.90;;;;;;7380837;19;20152;-68
2023/08/25 12:17:29;;;;;;;0.00;0.00;;;29.50;99.90;;;;;;7378977;19;20148;-68
2023/08/25 12:19:59;;;;;;;0.00;0.00;;;29.40;99.90;;;;;;7378423;19;20153;-67
2023/08/25 12:22:27;;;;;;;0.00;0.00;;;29.40;99.90;;;;;;7376761;19;20148;-68
2023/08/25 12:24:56;;;;;;;0.00;0.00;;;29.40;99.90;;;;;;7379521;19;20145;-68
2023/08/25 12:27:25;;;;;;;0.00;0.00;;;29.40;99.90;;;;;;7377226;19;20149;-68
2023/08/25 12:29:54;;;;;;;0.00;0.00;;;29.40;99.90;;;;;;7376329;19;20156;-68
2023/08/25 12:32:23;;;;;;;0.00;0.00;;;29.40;99.90;;;;;;7376249;19;20153;-68
2023/08/25 12:34:54;;;;;;;0.00;0.00;;;29.30;99.90;;;;;;7380099;19;20137;-69
2023/08/25 12:37:23;;;;;;;0.00;0.00;;;29.40;99.90;;;;;;7379963;19;20141;-69
2023/08/25 12:39:52;;;;;;;0.00;0.00;;;29.30;99.90;;;;;;7379670;19;20502;-68
2023/08/25 12:42:20;;;;;;;0.00;0.00;;;29.30;99.90;;;;;;7376895;19;20172;-67
2023/08/25 12:44:49;;;;;;;0.00;0.00;;;29.30;99.90;;;;;;7380278;19;20133;-68
2023/08/25 12:47:18;;;;;;;0.00;0.00;;;29.30;99.90;;;;;;7378694;19;20163;-67
2023/08/25 12:49:48;;;;;;;0.00;0.00;;;29.30;99.90;;;;;;7378425;19;20141;-67
2023/08/25 12:52:19;;;;;;;0.00;0.00;;;29.30;99.90;;;;;;7368774;19;20155;-67
2023/08/25 12:54:48;;;;;;;0.00;0.00;;;29.30;99.90;;;;;;7377861;19;20137;-68
2023/08/25 12:57:17;;;;;;;0.00;0.00;;;29.20;99.90;;;;;;7376621;19;20172;-68
2023/08/25 12:59:46;;;;;;;0.00;0.00;;;29.00;99.90;;;;;;7376624;19;20157;-67
2023/08/25 13:02:16;;;;;;;0.00;0.00;;;28.80;99.90;;;;;;7374443;19;20181;-68